Gakona, AK (99586)

10:29 AM AKDT on August 30, 2015 (GMT -0800)
Copper Bluff Subdivision | | Change Station
CLOSE
Current Station
Personal Weather Station
Location: Gakona, AK
Elevation: 1625 ft
Nearby Weather Stations

Elev 1625 ft 62.29 °N, 145.34 °W | Updated 13 minutes ago

Mostly Cloudy
Mostly Cloudy
40.4 °F
Feels Like 37 °F
N
5.0
Wind Variable Wind from WNW
Gusts 17.0 mph

Today
High -- | Low -- °F
--% Chance of Precip.
Yesterday
High -- | Low -- °F
Precip. -- in
6:24 AM 8:57 PM
Full, 99% visible
Pressure 29.29 in
Visibility 10.0 miles
Clouds Mostly Cloudy 9000 ft
Mostly Cloudy 12000 ft
Windchill 37 °F
Dew Point 29 °F
Humidity 65%
Rainfall 0.00 in
Snow Depth Not available.
UV 0.6 out of 12
Pollen Not available.
Air Quality Not available.
Flu Activity Not available.
METAR PAGK 301753Z AUTO 35010G20KT 10SM BKN090 BKN120 05/M04 A2925 RMK AO2 SLP918 T00501039 10050 20022 51010 TSNO
Pressure 29.29 in
Visibility 10.0 miles
Clouds Mostly Cloudy 9000 ft
Mostly Cloudy 12000 ft
Windchill 37 °F
Dew Point 29 °F
Humidity 65%
Rainfall 0.00 in
Snow Depth Not available.
UV 0.6 out of 12
Pollen Not available.
Air Quality Not available.
Flu Activity Not available.
METAR PAGK 301753Z AUTO 35010G20KT 10SM BKN090 BKN120 05/M04 A2925 RMK AO2 SLP918 T00501039 10050 20022 51010 TSNO

10-Day Weather Forecast

×

Almanac

Astronomy

Aug. 30, 2015 Rise Set
Actual Time
Civil Twilight
Nautical Twilight
Astronomical Twilight
Moon
Length of Visible Light
Length of Day
Tomorrow will be .
, % of the Moon is Illuminated

Today's Extremes

State Highs State Lows

Community

WunderPhotos

Upload Photos

1,851,029 photos uploaded!

WunderBlogs® & News

Nearby

Air Quality

  Air Quality AQ Index Pollutant
Not available.

Snow Depth

Station Depth Elevation

Earthquake Activity

City Distance Mag. Time & Date
Minimum magnitude displayed is 2.5.

Coastal Water Temperatures

Place Temperature

Stations

Nearby Weather Stations

Station Location Temp. Windchill Dew Point Humidity Wind Precip. Elev Updated Type